Capitol Reef, Utah
Current Conditions -  °F | °C
As of 7:53 PM on Monday 22 Dec 2014 (Local Time) from KBCE Reporting Station
Light Snow Light Snow  
Wind Chill: 24°   Ceiling: 4700
Heat Index: 34°   Visibility: 9mi
Dew Point: 24°   Wind: 16mph
Humidity: 67%   Direction: 320°NW
Pressure: 30.03"   Gusts: 33mph
Location:  38.2517°N, 111.706°W
Report Text: KBCE 230253Z AUTO 32014G29KT 9SM -SN BKN047 OVC055 01/M04 A3003 RMK AO2 PK WND 31033/0157 SNB47 SLP129 P0000 60000 T00111044 53003
Loading
Personal Weather Stations






























Interactive Weather Map New forecast layout! Learn more

10-Day Weather Forecast

Advertisements
Track Severe Weather on mobile